KMDD

Midland Airpark

Midland, Texas, USA
METAR KMDD 201255Z AUTO 19005KT 10SM 03/00 A2993 RMK AO2 T00310002
Observed Flight Rules
Jan-20 @ 12:55 UTC (17 minutes ago)
Wind Visibility
190° at 5 knots 10 miles
Temperatures Readings
Current 3°C / 37°F
Dewpoint 0°C / 32°F
Humidity 81%
Altimeter 29.93" Hg
Pressure 1014 hPa
Elevation 854
METAR KMDD 201255Z AUTO 19005KT 10SM 03/00 A2993 RMK AO2 T00310002
Observed Flight Rules
Jan-20 @ 12:55 UTC
(17 minutes ago)
Wind Visibility
190° at 5 knots 10 miles
Temperature Dewpoint
3°C / 37°F 0°C / 32°F
Humidity Altimeter Pressure
81% 29.93" Hg 1014 hPa